Pryse, Kentucky
Current Conditions -  °F | °C
As of 9:55 AM on Monday 29 Dec 2014 (Local Time) from KI39 Reporting Station
Overcast Overcast  
Wind Chill: 28°   Ceiling: 700
Heat Index: 34°   Visibility: 5mi
Dew Point: 32°   Wind: 7mph
Humidity: 93%   Direction: 20°NNE
Pressure: 30.22"   Gusts: NA
Location:  37.6427°N, 83.9998°W
Report Text: KI39 291455Z AUTO 02006KT 5SM OVC007 01/M00 A3022 RMK AO2
Loading
Personal Weather Stations






























Interactive Weather Map New forecast layout! Learn more

10-Day Weather Forecast

Advertisements
Track Severe Weather on mobile